sensor_id;sensor_type;location;lat;lon;timestamp;P1;durP1;ratioP1;P2;durP2;ratioP2
11263;SDS011;5689;48.798;9.070;2022-07-17T00:01:07;33.17;;;31.75;;
11263;SDS011;5689;48.798;9.070;2022-07-17T00:03:35;35.00;;;33.42;;
11263;SDS011;5689;48.798;9.070;2022-07-17T00:06:03;17.70;;;16.92;;
11263;SDS011;5689;48.798;9.070;2022-07-17T00:08:31;21.55;;;20.52;;
11263;SDS011;5689;48.798;9.070;2022-07-17T00:10:59;39.38;;;37.67;;
11263;SDS011;5689;48.798;9.070;2022-07-17T00:13:28;50.42;;;48.20;;
11263;SDS011;5689;48.798;9.070;2022-07-17T00:15:57;45.80;;;43.83;;
11263;SDS011;5689;48.798;9.070;2022-07-17T00:18:25;62.53;;;59.85;;
11263;SDS011;5689;48.798;9.070;2022-07-17T00:20:53;75.65;;;72.43;;
11263;SDS011;5689;48.798;9.070;2022-07-17T00:23:21;162.43;;;154.82;;
11263;SDS011;5689;48.798;9.070;2022-07-17T00:25:49;169.90;;;162.45;;
11263;SDS011;5689;48.798;9.070;2022-07-17T00:28:17;159.77;;;152.95;;
11263;SDS011;5689;48.798;9.070;2022-07-17T00:30:45;185.00;;;176.90;;
11263;SDS011;5689;48.798;9.070;2022-07-17T00:33:14;199.60;;;190.93;;
11263;SDS011;5689;48.798;9.070;2022-07-17T00:35:42;243.80;;;232.77;;
11263;SDS011;5689;48.798;9.070;2022-07-17T00:38:11;310.15;;;295.50;;
11263;SDS011;5689;48.798;9.070;2022-07-17T00:40:40;223.75;;;213.95;;
11263;SDS011;5689;48.798;9.070;2022-07-17T00:43:08;224.82;;;214.95;;
11263;SDS011;5689;48.798;9.070;2022-07-17T00:45:36;265.17;;;253.25;;
11263;SDS011;5689;48.798;9.070;2022-07-17T00:48:05;260.42;;;248.60;;
11263;SDS011;5689;48.798;9.070;2022-07-17T00:50:38;243.10;;;232.25;;
11263;SDS011;5689;48.798;9.070;2022-07-17T00:53:08;300.60;;;286.80;;
11263;SDS011;5689;48.798;9.070;2022-07-17T00:55:37;297.20;;;283.75;;
11263;SDS011;5689;48.798;9.070;2022-07-17T00:58:08;304.20;;;290.23;;
11263;SDS011;5689;48.798;9.070;2022-07-17T01:00:37;349.80;;;333.15;;
11263;SDS011;5689;48.798;9.070;2022-07-17T01:03:07;423.88;;;402.77;;
11263;SDS011;5689;48.798;9.070;2022-07-17T01:05:38;550.25;;;519.78;;
11263;SDS011;5689;48.798;9.070;2022-07-17T01:08:06;559.03;;;528.03;;
11263;SDS011;5689;48.798;9.070;2022-07-17T01:10:34;530.22;;;501.23;;
11263;SDS011;5689;48.798;9.070;2022-07-17T01:13:02;587.42;;;554.33;;
11263;SDS011;5689;48.798;9.070;2022-07-17T01:15:30;598.80;;;564.20;;
11263;SDS011;5689;48.798;9.070;2022-07-17T01:17:59;674.03;;;633.67;;
11263;SDS011;5689;48.798;9.070;2022-07-17T01:20:31;674.90;;;634.20;;
11263;SDS011;5689;48.798;9.070;2022-07-17T01:23:00;686.85;;;645.35;;
11263;SDS011;5689;48.798;9.070;2022-07-17T01:25:28;679.70;;;638.88;;
11263;SDS011;5689;48.798;9.070;2022-07-17T01:27:57;676.17;;;635.80;;
11263;SDS011;5689;48.798;9.070;2022-07-17T01:30:25;642.95;;;605.95;;
11263;SDS011;5689;48.798;9.070;2022-07-17T01:32:53;656.60;;;618.08;;
11263;SDS011;5689;48.798;9.070;2022-07-17T01:35:21;616.60;;;581.45;;
11263;SDS011;5689;48.798;9.070;2022-07-17T01:37:49;635.53;;;599.40;;
11263;SDS011;5689;48.798;9.070;2022-07-17T01:40:19;606.85;;;573.35;;
11263;SDS011;5689;48.798;9.070;2022-07-17T01:42:47;537.72;;;509.33;;
11263;SDS011;5689;48.798;9.070;2022-07-17T01:45:17;497.35;;;472.27;;
11263;SDS011;5689;48.798;9.070;2022-07-17T01:47:46;474.77;;;451.42;;
11263;SDS011;5689;48.798;9.070;2022-07-17T01:50:14;422.55;;;402.25;;
11263;SDS011;5689;48.798;9.070;2022-07-17T01:52:43;456.30;;;434.00;;
11263;SDS011;5689;48.798;9.070;2022-07-17T01:55:12;444.55;;;422.98;;
11263;SDS011;5689;48.798;9.070;2022-07-17T01:57:43;455.60;;;433.13;;
11263;SDS011;5689;48.798;9.070;2022-07-17T02:00:13;457.25;;;434.90;;
11263;SDS011;5689;48.798;9.070;2022-07-17T02:02:43;421.42;;;401.48;;
11263;SDS011;5689;48.798;9.070;2022-07-17T02:05:11;411.17;;;391.50;;
11263;SDS011;5689;48.798;9.070;2022-07-17T02:07:40;387.15;;;369.00;;
11263;SDS011;5689;48.798;9.070;2022-07-17T02:10:09;393.15;;;374.63;;
11263;SDS011;5689;48.798;9.070;2022-07-17T02:12:40;405.83;;;386.58;;
11263;SDS011;5689;48.798;9.070;2022-07-17T02:15:10;416.27;;;396.48;;
11263;SDS011;5689;48.798;9.070;2022-07-17T02:17:39;430.77;;;409.92;;
11263;SDS011;5689;48.798;9.070;2022-07-17T02:20:09;429.73;;;409.13;;
11263;SDS011;5689;48.798;9.070;2022-07-17T02:22:38;428.90;;;408.27;;
11263;SDS011;5689;48.798;9.070;2022-07-17T02:25:07;430.60;;;410.08;;
11263;SDS011;5689;48.798;9.070;2022-07-17T02:27:37;461.65;;;438.88;;
11263;SDS011;5689;48.798;9.070;2022-07-17T02:30:07;456.48;;;434.15;;
11263;SDS011;5689;48.798;9.070;2022-07-17T02:32:37;482.48;;;458.30;;
11263;SDS011;5689;48.798;9.070;2022-07-17T02:35:06;509.85;;;483.60;;
11263;SDS011;5689;48.798;9.070;2022-07-17T02:37:35;526.67;;;499.42;;
11263;SDS011;5689;48.798;9.070;2022-07-17T02:40:04;538.90;;;510.17;;
11263;SDS011;5689;48.798;9.070;2022-07-17T02:42:33;595.40;;;563.00;;
11263;SDS011;5689;48.798;9.070;2022-07-17T02:45:02;591.92;;;559.42;;
11263;SDS011;5689;48.798;9.070;2022-07-17T02:47:32;580.40;;;549.08;;
11263;SDS011;5689;48.798;9.070;2022-07-17T02:50:02;564.60;;;534.58;;
11263;SDS011;5689;48.798;9.070;2022-07-17T02:52:32;548.72;;;519.75;;
11263;SDS011;5689;48.798;9.070;2022-07-17T02:55:01;584.83;;;553.67;;
11263;SDS011;5689;48.798;9.070;2022-07-17T02:57:29;580.88;;;549.40;;
11263;SDS011;5689;48.798;9.070;2022-07-17T02:59:57;613.83;;;579.97;;
11263;SDS011;5689;48.798;9.070;2022-07-17T03:02:25;608.25;;;574.70;;
11263;SDS011;5689;48.798;9.070;2022-07-17T03:04:54;604.25;;;571.08;;
11263;SDS011;5689;48.798;9.070;2022-07-17T03:07:22;591.17;;;558.40;;
11263;SDS011;5689;48.798;9.070;2022-07-17T03:09:50;604.20;;;571.15;;
11263;SDS011;5689;48.798;9.070;2022-07-17T03:12:18;634.67;;;599.27;;
11263;SDS011;5689;48.798;9.070;2022-07-17T03:14:46;619.40;;;585.10;;
11263;SDS011;5689;48.798;9.070;2022-07-17T03:17:14;554.47;;;524.87;;
11263;SDS011;5689;48.798;9.070;2022-07-17T03:19:42;544.67;;;516.22;;
11263;SDS011;5689;48.798;9.070;2022-07-17T03:22:12;496.45;;;471.25;;
11263;SDS011;5689;48.798;9.070;2022-07-17T03:24:40;505.80;;;480.05;;
11263;SDS011;5689;48.798;9.070;2022-07-17T03:27:08;519.00;;;492.10;;
11263;SDS011;5689;48.798;9.070;2022-07-17T03:29:36;538.53;;;510.47;;
11263;SDS011;5689;48.798;9.070;2022-07-17T03:32:04;562.03;;;531.95;;
11263;SDS011;5689;48.798;9.070;2022-07-17T03:34:32;579.80;;;548.45;;
11263;SDS011;5689;48.798;9.070;2022-07-17T03:37:00;588.22;;;556.13;;
11263;SDS011;5689;48.798;9.070;2022-07-17T03:39:31;597.47;;;564.40;;
11263;SDS011;5689;48.798;9.070;2022-07-17T03:41:59;581.13;;;549.67;;
11263;SDS011;5689;48.798;9.070;2022-07-17T03:44:27;555.85;;;526.53;;
11263;SDS011;5689;48.798;9.070;2022-07-17T03:46:55;526.83;;;499.77;;
11263;SDS011;5689;48.798;9.070;2022-07-17T03:49:23;498.77;;;473.53;;
11263;SDS011;5689;48.798;9.070;2022-07-17T03:51:51;515.55;;;488.65;;
11263;SDS011;5689;48.798;9.070;2022-07-17T03:54:19;571.43;;;540.30;;
11263;SDS011;5689;48.798;9.070;2022-07-17T03:56:49;509.50;;;483.23;;
11263;SDS011;5689;48.798;9.070;2022-07-17T03:59:17;479.98;;;455.90;;
11263;SDS011;5689;48.798;9.070;2022-07-17T04:01:45;460.25;;;436.73;;
11263;SDS011;5689;48.798;9.070;2022-07-17T04:04:13;481.47;;;456.87;;
11263;SDS011;5689;48.798;9.070;2022-07-17T04:06:41;513.17;;;486.67;;
11263;SDS011;5689;48.798;9.070;2022-07-17T04:09:09;528.00;;;500.63;;
11263;SDS011;5689;48.798;9.070;2022-07-17T04:11:37;443.00;;;421.53;;
11263;SDS011;5689;48.798;9.070;2022-07-17T04:14:06;432.90;;;411.73;;
11263;SDS011;5689;48.798;9.070;2022-07-17T04:16:34;451.50;;;429.57;;
11263;SDS011;5689;48.798;9.070;2022-07-17T04:19:02;445.67;;;423.53;;
11263;SDS011;5689;48.798;9.070;2022-07-17T04:21:30;469.77;;;446.50;;
11263;SDS011;5689;48.798;9.070;2022-07-17T04:23:58;516.90;;;489.63;;
11263;SDS011;5689;48.798;9.070;2022-07-17T04:26:26;547.30;;;518.93;;
11263;SDS011;5689;48.798;9.070;2022-07-17T04:28:54;541.88;;;513.08;;
11263;SDS011;5689;48.798;9.070;2022-07-17T04:31:23;536.63;;;508.50;;
11263;SDS011;5689;48.798;9.070;2022-07-17T04:33:52;572.78;;;542.53;;
11263;SDS011;5689;48.798;9.070;2022-07-17T04:36:20;543.30;;;514.97;;
11263;SDS011;5689;48.798;9.070;2022-07-17T04:38:48;555.08;;;525.63;;
11263;SDS011;5689;48.798;9.070;2022-07-17T04:41:17;572.08;;;541.63;;
11263;SDS011;5689;48.798;9.070;2022-07-17T04:43:45;555.90;;;526.28;;
11263;SDS011;5689;48.798;9.070;2022-07-17T04:46:13;573.60;;;542.90;;
11263;SDS011;5689;48.798;9.070;2022-07-17T04:48:42;576.90;;;545.22;;
11263;SDS011;5689;48.798;9.070;2022-07-17T04:51:10;588.13;;;555.92;;
11263;SDS011;5689;48.798;9.070;2022-07-17T04:53:42;542.92;;;514.60;;
11263;SDS011;5689;48.798;9.070;2022-07-17T04:56:10;517.63;;;491.50;;
11263;SDS011;5689;48.798;9.070;2022-07-17T04:58:38;530.15;;;502.63;;
11263;SDS011;5689;48.798;9.070;2022-07-17T05:01:06;510.92;;;485.00;;
11263;SDS011;5689;48.798;9.070;2022-07-17T05:03:34;498.70;;;473.42;;
11263;SDS011;5689;48.798;9.070;2022-07-17T05:06:05;534.20;;;506.33;;
11263;SDS011;5689;48.798;9.070;2022-07-17T05:08:33;455.33;;;433.10;;
11263;SDS011;5689;48.798;9.070;2022-07-17T05:11:01;420.75;;;400.70;;
11263;SDS011;5689;48.798;9.070;2022-07-17T05:13:29;429.80;;;409.33;;
11263;SDS011;5689;48.798;9.070;2022-07-17T05:15:57;392.13;;;373.83;;
11263;SDS011;5689;48.798;9.070;2022-07-17T05:18:25;234.48;;;224.65;;
11263;SDS011;5689;48.798;9.070;2022-07-17T05:20:53;132.25;;;126.70;;
11263;SDS011;5689;48.798;9.070;2022-07-17T05:23:23;128.68;;;123.30;;
11263;SDS011;5689;48.798;9.070;2022-07-17T05:25:51;38.83;;;37.13;;
11263;SDS011;5689;48.798;9.070;2022-07-17T05:28:19;4.22;;;4.03;;
11263;SDS011;5689;48.798;9.070;2022-07-17T05:30:47;3.13;;;3.03;;
11263;SDS011;5689;48.798;9.070;2022-07-17T05:33:15;2.63;;;2.53;;
11263;SDS011;5689;48.798;9.070;2022-07-17T05:35:43;4.18;;;3.97;;
11263;SDS011;5689;48.798;9.070;2022-07-17T05:38:10;3.95;;;3.75;;
11263;SDS011;5689;48.798;9.070;2022-07-17T05:40:40;3.45;;;3.35;;
11263;SDS011;5689;48.798;9.070;2022-07-17T05:43:09;3.97;;;3.78;;
11263;SDS011;5689;48.798;9.070;2022-07-17T05:45:37;4.20;;;4.00;;
11263;SDS011;5689;48.798;9.070;2022-07-17T05:48:06;5.95;;;5.65;;
11263;SDS011;5689;48.798;9.070;2022-07-17T05:50:34;5.05;;;4.85;;
11263;SDS011;5689;48.798;9.070;2022-07-17T05:53:02;3.83;;;3.63;;
11263;SDS011;5689;48.798;9.070;2022-07-17T05:55:30;4.55;;;4.25;;
11263;SDS011;5689;48.798;9.070;2022-07-17T05:57:59;4.72;;;4.53;;
11263;SDS011;5689;48.798;9.070;2022-07-17T06:00:27;7.43;;;6.82;;
11263;SDS011;5689;48.798;9.070;2022-07-17T06:02:56;3.75;;;3.53;;
11263;SDS011;5689;48.798;9.070;2022-07-17T06:05:24;3.28;;;3.08;;
11263;SDS011;5689;48.798;9.070;2022-07-17T06:07:53;3.13;;;2.92;;
11263;SDS011;5689;48.798;9.070;2022-07-17T06:10:22;2.35;;;2.25;;
11263;SDS011;5689;48.798;9.070;2022-07-17T06:12:50;2.33;;;2.22;;
11263;SDS011;5689;48.798;9.070;2022-07-17T06:15:21;4.15;;;3.95;;
11263;SDS011;5689;48.798;9.070;2022-07-17T06:17:50;3.90;;;3.70;;
11263;SDS011;5689;48.798;9.070;2022-07-17T06:20:18;2.22;;;2.13;;
11263;SDS011;5689;48.798;9.070;2022-07-17T06:22:46;3.45;;;3.15;;
11263;SDS011;5689;48.798;9.070;2022-07-17T06:25:14;3.70;;;3.50;;
11263;SDS011;5689;48.798;9.070;2022-07-17T06:27:42;2.35;;;2.25;;
11263;SDS011;5689;48.798;9.070;2022-07-17T06:30:11;2.20;;;2.10;;
11263;SDS011;5689;48.798;9.070;2022-07-17T06:32:42;2.10;;;2.00;;
11263;SDS011;5689;48.798;9.070;2022-07-17T06:35:10;3.20;;;2.13;;
11263;SDS011;5689;48.798;9.070;2022-07-17T06:37:38;2.42;;;2.33;;
11263;SDS011;5689;48.798;9.070;2022-07-17T06:40:06;2.47;;;2.38;;
11263;SDS011;5689;48.798;9.070;2022-07-17T06:42:35;2.45;;;2.35;;
11263;SDS011;5689;48.798;9.070;2022-07-17T06:45:03;2.28;;;2.17;;
11263;SDS011;5689;48.798;9.070;2022-07-17T06:47:31;2.67;;;2.47;;
11263;SDS011;5689;48.798;9.070;2022-07-17T06:50:01;2.15;;;2.05;;
11263;SDS011;5689;48.798;9.070;2022-07-17T06:52:29;1.98;;;1.88;;
11263;SDS011;5689;48.798;9.070;2022-07-17T06:54:57;4.13;;;2.03;;
11263;SDS011;5689;48.798;9.070;2022-07-17T06:57:25;2.85;;;2.65;;
11263;SDS011;5689;48.798;9.070;2022-07-17T06:59:53;1.90;;;1.80;;
11263;SDS011;5689;48.798;9.070;2022-07-17T07:02:21;1.80;;;1.70;;
11263;SDS011;5689;48.798;9.070;2022-07-17T07:04:49;2.38;;;2.17;;
11263;SDS011;5689;48.798;9.070;2022-07-17T07:07:18;2.67;;;2.03;;
11263;SDS011;5689;48.798;9.070;2022-07-17T07:09:46;4.13;;;2.85;;
11263;SDS011;5689;48.798;9.070;2022-07-17T07:12:14;2.53;;;2.38;;
11263;SDS011;5689;48.798;9.070;2022-07-17T07:14:42;1.85;;;1.75;;
11263;SDS011;5689;48.798;9.070;2022-07-17T07:17:10;2.47;;;2.38;;
11263;SDS011;5689;48.798;9.070;2022-07-17T07:19:38;2.10;;;2.00;;
11263;SDS011;5689;48.798;9.070;2022-07-17T07:22:06;2.00;;;1.90;;
11263;SDS011;5689;48.798;9.070;2022-07-17T07:24:36;2.10;;;2.00;;
11263;SDS011;5689;48.798;9.070;2022-07-17T07:27:04;2.33;;;2.22;;
11263;SDS011;5689;48.798;9.070;2022-07-17T07:29:32;2.15;;;2.05;;
11263;SDS011;5689;48.798;9.070;2022-07-17T07:32:00;2.38;;;2.22;;
11263;SDS011;5689;48.798;9.070;2022-07-17T07:34:28;2.53;;;2.33;;
11263;SDS011;5689;48.798;9.070;2022-07-17T07:36:56;2.10;;;1.95;;
11263;SDS011;5689;48.798;9.070;2022-07-17T07:39:24;2.13;;;2.03;;
11263;SDS011;5689;48.798;9.070;2022-07-17T07:41:54;3.22;;;2.15;;
11263;SDS011;5689;48.798;9.070;2022-07-17T07:44:22;1.52;;;1.52;;
11263;SDS011;5689;48.798;9.070;2022-07-17T07:46:54;2.03;;;1.92;;
11263;SDS011;5689;48.798;9.070;2022-07-17T07:49:22;1.95;;;1.85;;
11263;SDS011;5689;48.798;9.070;2022-07-17T07:51:50;2.10;;;2.00;;
11263;SDS011;5689;48.798;9.070;2022-07-17T07:54:33;3.88;;;3.03;;
11263;SDS011;5689;48.798;9.070;2022-07-17T07:57:03;1.70;;;1.60;;
11263;SDS011;5689;48.798;9.070;2022-07-17T07:59:31;1.77;;;1.67;;
11263;SDS011;5689;48.798;9.070;2022-07-17T08:01:59;1.65;;;1.55;;
11263;SDS011;5689;48.798;9.070;2022-07-17T08:04:28;3.85;;;1.83;;
11263;SDS011;5689;48.798;9.070;2022-07-17T08:06:56;1.75;;;1.65;;
11263;SDS011;5689;48.798;9.070;2022-07-17T08:09:24;1.55;;;1.50;;
11263;SDS011;5689;48.798;9.070;2022-07-17T08:11:52;1.38;;;1.38;;
11263;SDS011;5689;48.798;9.070;2022-07-17T08:14:22;1.30;;;1.30;;
11263;SDS011;5689;48.798;9.070;2022-07-17T08:16:50;1.38;;;1.38;;
11263;SDS011;5689;48.798;9.070;2022-07-17T08:19:18;1.60;;;1.52;;
11263;SDS011;5689;48.798;9.070;2022-07-17T08:21:47;1.95;;;1.80;;
11263;SDS011;5689;48.798;9.070;2022-07-17T08:24:15;1.30;;;1.30;;
11263;SDS011;5689;48.798;9.070;2022-07-17T08:26:43;1.40;;;1.40;;
11263;SDS011;5689;48.798;9.070;2022-07-17T08:29:11;1.30;;;1.30;;
11263;SDS011;5689;48.798;9.070;2022-07-17T08:31:40;1.65;;;1.55;;
11263;SDS011;5689;48.798;9.070;2022-07-17T08:34:09;1.48;;;1.40;;
11263;SDS011;5689;48.798;9.070;2022-07-17T08:36:37;1.70;;;1.60;;
11263;SDS011;5689;48.798;9.070;2022-07-17T08:39:05;1.50;;;1.50;;
11263;SDS011;5689;48.798;9.070;2022-07-17T08:41:34;2.03;;;1.50;;
11263;SDS011;5689;48.798;9.070;2022-07-17T08:44:04;1.55;;;1.45;;
11263;SDS011;5689;48.798;9.070;2022-07-17T08:46:33;1.30;;;1.30;;
11263;SDS011;5689;48.798;9.070;2022-07-17T08:49:05;1.45;;;1.45;;
11263;SDS011;5689;48.798;9.070;2022-07-17T08:51:34;1.73;;;1.63;;
11263;SDS011;5689;48.798;9.070;2022-07-17T08:54:05;1.58;;;1.48;;
11263;SDS011;5689;48.798;9.070;2022-07-17T08:56:33;1.83;;;1.73;;
11263;SDS011;5689;48.798;9.070;2022-07-17T08:59:01;2.35;;;1.40;;
11263;SDS011;5689;48.798;9.070;2022-07-17T09:01:29;1.40;;;1.40;;
11263;SDS011;5689;48.798;9.070;2022-07-17T09:03:59;1.40;;;1.40;;
11263;SDS011;5689;48.798;9.070;2022-07-17T09:06:34;1.48;;;1.45;;
11263;SDS011;5689;48.798;9.070;2022-07-17T09:09:03;1.30;;;1.30;;
11263;SDS011;5689;48.798;9.070;2022-07-17T09:14:21;1.38;;;1.38;;
11263;SDS011;5689;48.798;9.070;2022-07-17T09:16:50;1.20;;;1.20;;
11263;SDS011;5689;48.798;9.070;2022-07-17T09:19:26;1.40;;;1.40;;
11263;SDS011;5689;48.798;9.070;2022-07-17T09:22:06;1.20;;;1.20;;
11263;SDS011;5689;48.798;9.070;2022-07-17T09:24:38;1.38;;;1.38;;
11263;SDS011;5689;48.798;9.070;2022-07-17T09:27:12;1.73;;;1.63;;
11263;SDS011;5689;48.798;9.070;2022-07-17T09:29:51;1.42;;;1.38;;
11263;SDS011;5689;48.798;9.070;2022-07-17T09:32:21;1.48;;;1.45;;
11263;SDS011;5689;48.798;9.070;2022-07-17T09:34:50;1.80;;;1.73;;
11263;SDS011;5689;48.798;9.070;2022-07-17T09:37:22;1.30;;;1.30;;
11263;SDS011;5689;48.798;9.070;2022-07-17T09:39:51;1.20;;;1.20;;
11263;SDS011;5689;48.798;9.070;2022-07-17T09:42:24;2.03;;;1.40;;
11263;SDS011;5689;48.798;9.070;2022-07-17T09:45:00;1.50;;;1.40;;
11263;SDS011;5689;48.798;9.070;2022-07-17T09:47:29;1.27;;;1.27;;
11263;SDS011;5689;48.798;9.070;2022-07-17T09:49:58;1.52;;;1.50;;
11263;SDS011;5689;48.798;9.070;2022-07-17T09:52:29;3.33;;;1.40;;
11263;SDS011;5689;48.798;9.070;2022-07-17T09:55:00;1.27;;;1.23;;
11263;SDS011;5689;48.798;9.070;2022-07-17T09:57:41;1.35;;;1.35;;
11263;SDS011;5689;48.798;9.070;2022-07-17T10:00:11;1.15;;;1.15;;
11263;SDS011;5689;48.798;9.070;2022-07-17T10:02:41;1.42;;;1.40;;
11263;SDS011;5689;48.798;9.070;2022-07-17T10:05:10;1.50;;;1.40;;
11263;SDS011;5689;48.798;9.070;2022-07-17T10:07:43;1.20;;;1.20;;
11263;SDS011;5689;48.798;9.070;2022-07-17T10:10:12;1.40;;;1.30;;
11263;SDS011;5689;48.798;9.070;2022-07-17T10:12:42;1.50;;;1.50;;
11263;SDS011;5689;48.798;9.070;2022-07-17T10:15:11;1.48;;;1.48;;
11263;SDS011;5689;48.798;9.070;2022-07-17T10:17:40;1.20;;;1.20;;
11263;SDS011;5689;48.798;9.070;2022-07-17T10:20:11;1.20;;;1.20;;
11263;SDS011;5689;48.798;9.070;2022-07-17T10:22:40;1.60;;;1.50;;
11263;SDS011;5689;48.798;9.070;2022-07-17T10:25:12;1.70;;;1.60;;
11263;SDS011;5689;48.798;9.070;2022-07-17T10:27:48;1.65;;;1.55;;
11263;SDS011;5689;48.798;9.070;2022-07-17T10:30:25;2.05;;;1.58;;
11263;SDS011;5689;48.798;9.070;2022-07-17T10:32:54;1.58;;;1.48;;
11263;SDS011;5689;48.798;9.070;2022-07-17T10:35:24;1.13;;;1.13;;
11263;SDS011;5689;48.798;9.070;2022-07-17T10:37:58;1.10;;;1.10;;
11263;SDS011;5689;48.798;9.070;2022-07-17T10:40:37;1.20;;;1.20;;
11263;SDS011;5689;48.798;9.070;2022-07-17T10:43:05;2.45;;;1.48;;
11263;SDS011;5689;48.798;9.070;2022-07-17T10:45:35;1.20;;;1.20;;
11263;SDS011;5689;48.798;9.070;2022-07-17T10:48:06;1.45;;;1.38;;
11263;SDS011;5689;48.798;9.070;2022-07-17T10:50:36;1.20;;;1.20;;
11263;SDS011;5689;48.798;9.070;2022-07-17T10:53:09;1.65;;;1.58;;
11263;SDS011;5689;48.798;9.070;2022-07-17T10:55:41;1.30;;;1.30;;
11263;SDS011;5689;48.798;9.070;2022-07-17T10:58:18;0.98;;;0.98;;
11263;SDS011;5689;48.798;9.070;2022-07-17T11:00:58;1.10;;;1.10;;
11263;SDS011;5689;48.798;9.070;2022-07-17T11:03:28;0.90;;;0.90;;
11263;SDS011;5689;48.798;9.070;2022-07-17T11:06:05;1.10;;;1.10;;
11263;SDS011;5689;48.798;9.070;2022-07-17T11:08:43;2.88;;;1.42;;
11263;SDS011;5689;48.798;9.070;2022-07-17T11:11:13;1.10;;;1.10;;
11263;SDS011;5689;48.798;9.070;2022-07-17T11:13:45;1.45;;;1.38;;
11263;SDS011;5689;48.798;9.070;2022-07-17T11:16:22;1.00;;;1.00;;
11263;SDS011;5689;48.798;9.070;2022-07-17T11:18:52;1.20;;;1.20;;
11263;SDS011;5689;48.798;9.070;2022-07-17T11:21:21;1.20;;;1.20;;
11263;SDS011;5689;48.798;9.070;2022-07-17T11:23:51;1.10;;;1.10;;
11263;SDS011;5689;48.798;9.070;2022-07-17T11:26:21;1.20;;;1.20;;
11263;SDS011;5689;48.798;9.070;2022-07-17T11:28:50;1.50;;;1.40;;
11263;SDS011;5689;48.798;9.070;2022-07-17T11:31:22;2.38;;;1.65;;
11263;SDS011;5689;48.798;9.070;2022-07-17T11:33:51;1.13;;;1.13;;
11263;SDS011;5689;48.798;9.070;2022-07-17T11:36:21;1.00;;;1.00;;
11263;SDS011;5689;48.798;9.070;2022-07-17T11:38:55;1.10;;;1.10;;
11263;SDS011;5689;48.798;9.070;2022-07-17T11:41:31;1.10;;;1.10;;
11263;SDS011;5689;48.798;9.070;2022-07-17T11:44:00;0.93;;;0.93;;
11263;SDS011;5689;48.798;9.070;2022-07-17T11:46:29;1.00;;;1.00;;
11263;SDS011;5689;48.798;9.070;2022-07-17T11:48:59;1.00;;;1.00;;
11263;SDS011;5689;48.798;9.070;2022-07-17T11:51:34;1.23;;;1.23;;
11263;SDS011;5689;48.798;9.070;2022-07-17T11:54:07;1.00;;;1.00;;
11263;SDS011;5689;48.798;9.070;2022-07-17T11:56:36;1.00;;;1.00;;
11263;SDS011;5689;48.798;9.070;2022-07-17T11:59:04;1.10;;;1.10;;
11263;SDS011;5689;48.798;9.070;2022-07-17T12:01:40;1.00;;;1.00;;
11263;SDS011;5689;48.798;9.070;2022-07-17T12:04:10;1.17;;;1.15;;
11263;SDS011;5689;48.798;9.070;2022-07-17T12:06:41;1.00;;;1.00;;
11263;SDS011;5689;48.798;9.070;2022-07-17T12:09:10;1.00;;;1.00;;
11263;SDS011;5689;48.798;9.070;2022-07-17T12:11:45;1.02;;;1.02;;
11263;SDS011;5689;48.798;9.070;2022-07-17T12:14:14;1.42;;;1.38;;
11263;SDS011;5689;48.798;9.070;2022-07-17T12:16:42;1.08;;;1.08;;
11263;SDS011;5689;48.798;9.070;2022-07-17T12:19:12;1.50;;;1.00;;
11263;SDS011;5689;48.798;9.070;2022-07-17T12:21:49;1.42;;;1.33;;
11263;SDS011;5689;48.798;9.070;2022-07-17T12:24:22;1.17;;;1.17;;
11263;SDS011;5689;48.798;9.070;2022-07-17T12:26:53;1.00;;;1.00;;
11263;SDS011;5689;48.798;9.070;2022-07-17T12:29:22;1.23;;;1.20;;
11263;SDS011;5689;48.798;9.070;2022-07-17T12:32:04;1.20;;;1.20;;
11263;SDS011;5689;48.798;9.070;2022-07-17T12:34:34;1.08;;;1.08;;
11263;SDS011;5689;48.798;9.070;2022-07-17T12:37:02;1.13;;;1.13;;
11263;SDS011;5689;48.798;9.070;2022-07-17T12:39:32;1.20;;;1.20;;
11263;SDS011;5689;48.798;9.070;2022-07-17T12:42:00;1.10;;;1.10;;
11263;SDS011;5689;48.798;9.070;2022-07-17T12:44:29;1.83;;;1.10;;
11263;SDS011;5689;48.798;9.070;2022-07-17T12:46:58;1.25;;;1.25;;
11263;SDS011;5689;48.798;9.070;2022-07-17T12:49:26;1.20;;;1.20;;
11263;SDS011;5689;48.798;9.070;2022-07-17T12:51:54;0.90;;;0.90;;
11263;SDS011;5689;48.798;9.070;2022-07-17T12:54:22;1.38;;;1.35;;
11263;SDS011;5689;48.798;9.070;2022-07-17T12:56:51;0.80;;;0.80;;
11263;SDS011;5689;48.798;9.070;2022-07-17T12:59:19;2.25;;;1.15;;
11263;SDS011;5689;48.798;9.070;2022-07-17T13:01:47;1.67;;;1.30;;
11263;SDS011;5689;48.798;9.070;2022-07-17T13:04:15;1.00;;;1.00;;
11263;SDS011;5689;48.798;9.070;2022-07-17T13:06:43;1.10;;;1.10;;
11263;SDS011;5689;48.798;9.070;2022-07-17T13:09:11;1.45;;;1.40;;
11263;SDS011;5689;48.798;9.070;2022-07-17T13:11:40;1.20;;;1.20;;
11263;SDS011;5689;48.798;9.070;2022-07-17T13:14:10;0.90;;;0.90;;
11263;SDS011;5689;48.798;9.070;2022-07-17T13:16:38;1.60;;;1.50;;
11263;SDS011;5689;48.798;9.070;2022-07-17T13:19:07;1.10;;;1.10;;
11263;SDS011;5689;48.798;9.070;2022-07-17T13:21:35;1.05;;;1.05;;
11263;SDS011;5689;48.798;9.070;2022-07-17T13:24:04;1.20;;;1.20;;
11263;SDS011;5689;48.798;9.070;2022-07-17T13:26:32;1.15;;;1.15;;
11263;SDS011;5689;48.798;9.070;2022-07-17T13:29:01;1.08;;;1.08;;
11263;SDS011;5689;48.798;9.070;2022-07-17T13:31:30;1.30;;;1.30;;
11263;SDS011;5689;48.798;9.070;2022-07-17T13:33:58;1.10;;;1.10;;
11263;SDS011;5689;48.798;9.070;2022-07-17T13:36:27;1.20;;;1.20;;
11263;SDS011;5689;48.798;9.070;2022-07-17T13:38:55;1.55;;;1.45;;
11263;SDS011;5689;48.798;9.070;2022-07-17T13:41:23;1.20;;;1.20;;
11263;SDS011;5689;48.798;9.070;2022-07-17T13:43:51;1.00;;;1.00;;
11263;SDS011;5689;48.798;9.070;2022-07-17T13:46:21;1.50;;;1.40;;
11263;SDS011;5689;48.798;9.070;2022-07-17T13:48:50;1.10;;;1.10;;
11263;SDS011;5689;48.798;9.070;2022-07-17T13:51:18;1.20;;;1.20;;
11263;SDS011;5689;48.798;9.070;2022-07-17T13:53:46;2.08;;;1.05;;
11263;SDS011;5689;48.798;9.070;2022-07-17T13:56:14;1.42;;;1.33;;
11263;SDS011;5689;48.798;9.070;2022-07-17T13:58:43;1.02;;;1.02;;
11263;SDS011;5689;48.798;9.070;2022-07-17T14:01:12;0.82;;;0.82;;
11263;SDS011;5689;48.798;9.070;2022-07-17T14:03:44;1.00;;;1.00;;
11263;SDS011;5689;48.798;9.070;2022-07-17T14:06:13;1.33;;;1.23;;
11263;SDS011;5689;48.798;9.070;2022-07-17T14:08:41;1.10;;;1.10;;
11263;SDS011;5689;48.798;9.070;2022-07-17T14:11:09;0.90;;;0.90;;
11263;SDS011;5689;48.798;9.070;2022-07-17T14:13:38;1.00;;;1.00;;
11263;SDS011;5689;48.798;9.070;2022-07-17T14:16:09;1.65;;;1.55;;
11263;SDS011;5689;48.798;9.070;2022-07-17T14:18:37;1.10;;;1.10;;
11263;SDS011;5689;48.798;9.070;2022-07-17T14:21:25;1.10;;;1.10;;
11263;SDS011;5689;48.798;9.070;2022-07-17T14:23:54;1.17;;;1.05;;
11263;SDS011;5689;48.798;9.070;2022-07-17T14:26:22;0.77;;;0.77;;
11263;SDS011;5689;48.798;9.070;2022-07-17T14:28:50;0.90;;;0.90;;
11263;SDS011;5689;48.798;9.070;2022-07-17T14:31:18;0.90;;;0.90;;
11263;SDS011;5689;48.798;9.070;2022-07-17T14:33:46;1.27;;;1.10;;
11263;SDS011;5689;48.798;9.070;2022-07-17T14:36:14;1.45;;;1.35;;
11263;SDS011;5689;48.798;9.070;2022-07-17T14:38:44;1.00;;;1.00;;
11263;SDS011;5689;48.798;9.070;2022-07-17T14:41:12;1.00;;;1.00;;
11263;SDS011;5689;48.798;9.070;2022-07-17T14:43:40;1.23;;;1.23;;
11263;SDS011;5689;48.798;9.070;2022-07-17T14:46:08;1.20;;;1.20;;
11263;SDS011;5689;48.798;9.070;2022-07-17T14:48:37;0.90;;;0.90;;
11263;SDS011;5689;48.798;9.070;2022-07-17T14:51:05;0.90;;;0.90;;
11263;SDS011;5689;48.798;9.070;2022-07-17T14:53:33;1.05;;;1.05;;
11263;SDS011;5689;48.798;9.070;2022-07-17T14:56:03;1.08;;;1.08;;
11263;SDS011;5689;48.798;9.070;2022-07-17T14:58:31;0.80;;;0.80;;